sensor_id;sensor_type;location;lat;lon;timestamp;pressure;altitude;pressure_sealevel;temperature;humidity
62057;BME280;48016;50.284;18.860;2023-01-30T00:00:56;98217.62;;;-3.02;72.30
62057;BME280;48016;50.284;18.860;2023-01-30T00:03:23;98211.77;;;-3.01;72.49
62057;BME280;48016;50.284;18.860;2023-01-30T00:05:51;98203.41;;;-3.01;72.71
62057;BME280;48016;50.284;18.860;2023-01-30T00:08:18;98201.88;;;-2.99;72.91
62057;BME280;48016;50.284;18.860;2023-01-30T00:10:45;98193.59;;;-2.98;73.05
62057;BME280;48016;50.284;18.860;2023-01-30T00:13:12;98188.08;;;-2.97;72.96
62057;BME280;48016;50.284;18.860;2023-01-30T00:15:40;98179.44;;;-2.96;72.73
62057;BME280;48016;50.284;18.860;2023-01-30T00:18:07;98174.25;;;-2.95;72.67
62057;BME280;48016;50.284;18.860;2023-01-30T00:20:34;98168.38;;;-2.94;72.41
62057;BME280;48016;50.284;18.860;2023-01-30T00:23:01;98158.52;;;-2.95;72.35
62057;BME280;48016;50.284;18.860;2023-01-30T00:25:27;98155.02;;;-2.98;72.22
62057;BME280;48016;50.284;18.860;2023-01-30T00:27:59;98154.02;;;-3.03;72.00
62057;BME280;48016;50.284;18.860;2023-01-30T00:30:26;98157.77;;;-3.07;72.23
62057;BME280;48016;50.284;18.860;2023-01-30T00:32:55;98155.23;;;-3.09;72.11
62057;BME280;48016;50.284;18.860;2023-01-30T00:35:22;98145.05;;;-3.12;72.20
62057;BME280;48016;50.284;18.860;2023-01-30T00:37:55;98144.27;;;-3.15;72.13
62057;BME280;48016;50.284;18.860;2023-01-30T00:40:24;98135.17;;;-3.19;72.29
62057;BME280;48016;50.284;18.860;2023-01-30T00:42:51;98137.46;;;-3.23;72.45
62057;BME280;48016;50.284;18.860;2023-01-30T00:45:37;98135.97;;;-3.22;72.60
62057;BME280;48016;50.284;18.860;2023-01-30T00:48:25;98137.55;;;-3.22;72.94
62057;BME280;48016;50.284;18.860;2023-01-30T00:50:51;98132.83;;;-3.21;73.19
62057;BME280;48016;50.284;18.860;2023-01-30T00:53:18;98124.84;;;-3.22;73.13
62057;BME280;48016;50.284;18.860;2023-01-30T00:55:45;98125.83;;;-3.23;73.15
62057;BME280;48016;50.284;18.860;2023-01-30T00:58:12;98122.77;;;-3.24;73.00
62057;BME280;48016;50.284;18.860;2023-01-30T01:00:39;98121.39;;;-3.27;72.78
62057;BME280;48016;50.284;18.860;2023-01-30T01:03:06;98114.26;;;-3.31;72.82
62057;BME280;48016;50.284;18.860;2023-01-30T01:05:33;98115.33;;;-3.34;72.66
62057;BME280;48016;50.284;18.860;2023-01-30T01:08:00;98115.13;;;-3.40;72.80
62057;BME280;48016;50.284;18.860;2023-01-30T01:10:27;98099.70;;;-3.46;72.54
62057;BME280;48016;50.284;18.860;2023-01-30T01:12:54;98100.23;;;-3.54;72.64
62057;BME280;48016;50.284;18.860;2023-01-30T01:15:22;98096.52;;;-3.60;72.83
62057;BME280;48016;50.284;18.860;2023-01-30T01:17:49;98087.10;;;-3.69;72.67
62057;BME280;48016;50.284;18.860;2023-01-30T01:20:17;98084.64;;;-3.77;72.76
62057;BME280;48016;50.284;18.860;2023-01-30T01:22:44;98085.66;;;-3.83;73.03
62057;BME280;48016;50.284;18.860;2023-01-30T01:25:11;98076.98;;;-3.87;73.44
62057;BME280;48016;50.284;18.860;2023-01-30T01:27:37;98072.93;;;-3.94;73.93
62057;BME280;48016;50.284;18.860;2023-01-30T01:30:05;98069.23;;;-3.95;74.03
62057;BME280;48016;50.284;18.860;2023-01-30T01:32:32;98067.88;;;-3.94;74.03
62057;BME280;48016;50.284;18.860;2023-01-30T01:34:59;98066.98;;;-3.92;74.61
62057;BME280;48016;50.284;18.860;2023-01-30T01:37:26;98061.95;;;-3.92;74.88
62057;BME280;48016;50.284;18.860;2023-01-30T01:39:52;98048.51;;;-3.93;74.81
62057;BME280;48016;50.284;18.860;2023-01-30T01:42:38;98025.66;;;-3.94;74.75
62057;BME280;48016;50.284;18.860;2023-01-30T01:50:22;97997.52;;;-4.09;74.21
62057;BME280;48016;50.284;18.860;2023-01-30T01:52:52;97987.20;;;-4.16;74.55
62057;BME280;48016;50.284;18.860;2023-01-30T01:55:21;97982.23;;;-4.20;74.60
62057;BME280;48016;50.284;18.860;2023-01-30T01:57:53;97976.96;;;-4.25;74.70
62057;BME280;48016;50.284;18.860;2023-01-30T02:00:22;97968.72;;;-4.29;74.94
62057;BME280;48016;50.284;18.860;2023-01-30T02:03:01;97960.08;;;-4.32;74.86
62057;BME280;48016;50.284;18.860;2023-01-30T02:05:36;97960.55;;;-4.35;75.05
62057;BME280;48016;50.284;18.860;2023-01-30T02:08:20;97958.38;;;-4.36;75.30
62057;BME280;48016;50.284;18.860;2023-01-30T02:13:46;97951.48;;;-4.37;75.65
62057;BME280;48016;50.284;18.860;2023-01-30T02:16:14;97949.56;;;-4.37;75.85
62057;BME280;48016;50.284;18.860;2023-01-30T02:18:42;97945.71;;;-4.36;76.32
62057;BME280;48016;50.284;18.860;2023-01-30T02:21:25;97941.94;;;-4.35;76.53
62057;BME280;48016;50.284;18.860;2023-01-30T02:26:53;97916.42;;;-4.32;77.00
62057;BME280;48016;50.284;18.860;2023-01-30T02:35:01;97898.59;;;-4.33;76.73
62057;BME280;48016;50.284;18.860;2023-01-30T02:37:57;97903.17;;;-4.33;76.72
62057;BME280;48016;50.284;18.860;2023-01-30T02:40:48;97890.38;;;-4.35;76.61
62057;BME280;48016;50.284;18.860;2023-01-30T02:49:31;97873.84;;;-4.25;77.59
62057;BME280;48016;50.284;18.860;2023-01-30T02:52:02;97875.56;;;-4.21;77.51
62057;BME280;48016;50.284;18.860;2023-01-30T02:54:29;97884.82;;;-4.14;77.92
62057;BME280;48016;50.284;18.860;2023-01-30T02:56:57;97877.67;;;-4.10;77.84
62057;BME280;48016;50.284;18.860;2023-01-30T03:07:42;97875.30;;;-3.96;77.43
62057;BME280;48016;50.284;18.860;2023-01-30T03:15:41;97862.84;;;-3.99;77.27
62057;BME280;48016;50.284;18.860;2023-01-30T03:18:11;97861.41;;;-3.98;77.33
62057;BME280;48016;50.284;18.860;2023-01-30T03:20:39;97856.54;;;-3.98;77.48
62057;BME280;48016;50.284;18.860;2023-01-30T03:23:07;97859.66;;;-3.98;77.44
62057;BME280;48016;50.284;18.860;2023-01-30T03:25:34;97854.27;;;-3.97;77.54
62057;BME280;48016;50.284;18.860;2023-01-30T03:28:04;97853.72;;;-3.98;77.38
62057;BME280;48016;50.284;18.860;2023-01-30T03:30:32;97854.33;;;-3.99;77.48
62057;BME280;48016;50.284;18.860;2023-01-30T03:32:59;97854.79;;;-4.00;77.63
62057;BME280;48016;50.284;18.860;2023-01-30T03:35:25;97852.23;;;-3.99;77.50
62057;BME280;48016;50.284;18.860;2023-01-30T03:37:53;97843.16;;;-4.00;77.60
62057;BME280;48016;50.284;18.860;2023-01-30T03:40:20;97843.95;;;-3.99;77.29
62057;BME280;48016;50.284;18.860;2023-01-30T03:42:47;97839.10;;;-4.00;77.36
62057;BME280;48016;50.284;18.860;2023-01-30T03:45:13;97832.80;;;-4.00;77.06
62057;BME280;48016;50.284;18.860;2023-01-30T03:47:40;97826.75;;;-3.99;77.18
62057;BME280;48016;50.284;18.860;2023-01-30T03:50:07;97826.29;;;-3.98;77.26
62057;BME280;48016;50.284;18.860;2023-01-30T03:52:37;97822.50;;;-3.95;77.41
62057;BME280;48016;50.284;18.860;2023-01-30T03:55:04;97820.86;;;-3.91;77.45
62057;BME280;48016;50.284;18.860;2023-01-30T03:57:30;97804.48;;;-3.88;77.74
62057;BME280;48016;50.284;18.860;2023-01-30T03:59:57;97803.51;;;-3.86;77.77
62057;BME280;48016;50.284;18.860;2023-01-30T04:02:24;97797.70;;;-3.83;77.57
62057;BME280;48016;50.284;18.860;2023-01-30T04:04:52;97784.08;;;-3.79;77.64
62057;BME280;48016;50.284;18.860;2023-01-30T04:07:18;97775.82;;;-3.75;77.83
62057;BME280;48016;50.284;18.860;2023-01-30T04:09:45;97772.75;;;-3.71;77.81
62057;BME280;48016;50.284;18.860;2023-01-30T04:12:12;97769.66;;;-3.69;77.85
62057;BME280;48016;50.284;18.860;2023-01-30T04:14:39;97758.65;;;-3.66;77.63
62057;BME280;48016;50.284;18.860;2023-01-30T04:17:06;97762.55;;;-3.68;77.47
62057;BME280;48016;50.284;18.860;2023-01-30T04:19:32;97758.33;;;-3.69;77.45
62057;BME280;48016;50.284;18.860;2023-01-30T04:21:59;97753.08;;;-3.68;77.44
62057;BME280;48016;50.284;18.860;2023-01-30T04:24:26;97751.20;;;-3.69;77.22
62057;BME280;48016;50.284;18.860;2023-01-30T04:26:53;97744.25;;;-3.70;77.21
62057;BME280;48016;50.284;18.860;2023-01-30T04:29:20;97746.98;;;-3.69;77.07
62057;BME280;48016;50.284;18.860;2023-01-30T04:31:47;97750.63;;;-3.67;77.24
62057;BME280;48016;50.284;18.860;2023-01-30T04:34:13;97749.30;;;-3.65;77.24
62057;BME280;48016;50.284;18.860;2023-01-30T04:36:40;97745.04;;;-3.61;77.43
62057;BME280;48016;50.284;18.860;2023-01-30T04:39:07;97736.59;;;-3.58;77.39
62057;BME280;48016;50.284;18.860;2023-01-30T04:41:33;97741.22;;;-3.55;77.24
62057;BME280;48016;50.284;18.860;2023-01-30T04:44:00;97737.86;;;-3.52;77.38
62057;BME280;48016;50.284;18.860;2023-01-30T04:46:27;97746.05;;;-3.50;77.38
62057;BME280;48016;50.284;18.860;2023-01-30T04:48:53;97742.55;;;-3.49;77.26
62057;BME280;48016;50.284;18.860;2023-01-30T04:51:20;97736.94;;;-3.46;77.13
62057;BME280;48016;50.284;18.860;2023-01-30T04:53:47;97730.48;;;-3.45;77.03
62057;BME280;48016;50.284;18.860;2023-01-30T04:56:13;97726.81;;;-3.47;76.65
62057;BME280;48016;50.284;18.860;2023-01-30T04:58:40;97723.64;;;-3.49;76.63
62057;BME280;48016;50.284;18.860;2023-01-30T05:01:15;97716.12;;;-3.49;76.63
62057;BME280;48016;50.284;18.860;2023-01-30T05:03:42;97709.19;;;-3.47;76.59
62057;BME280;48016;50.284;18.860;2023-01-30T05:06:09;97698.39;;;-3.46;76.48
62057;BME280;48016;50.284;18.860;2023-01-30T05:08:35;97694.06;;;-3.47;76.65
62057;BME280;48016;50.284;18.860;2023-01-30T05:11:02;97701.14;;;-3.47;76.80
62057;BME280;48016;50.284;18.860;2023-01-30T05:13:29;97697.40;;;-3.47;76.85
62057;BME280;48016;50.284;18.860;2023-01-30T05:15:55;97701.84;;;-3.46;76.91
62057;BME280;48016;50.284;18.860;2023-01-30T05:18:22;97695.91;;;-3.43;76.88
62057;BME280;48016;50.284;18.860;2023-01-30T05:20:49;97691.14;;;-3.42;76.94
62057;BME280;48016;50.284;18.860;2023-01-30T05:23:15;97690.15;;;-3.39;76.85
62057;BME280;48016;50.284;18.860;2023-01-30T05:25:42;97689.50;;;-3.38;76.83
62057;BME280;48016;50.284;18.860;2023-01-30T05:28:08;97688.72;;;-3.37;76.56
62057;BME280;48016;50.284;18.860;2023-01-30T05:30:35;97679.33;;;-3.37;76.53
62057;BME280;48016;50.284;18.860;2023-01-30T05:33:02;97684.83;;;-3.37;76.28
62057;BME280;48016;50.284;18.860;2023-01-30T05:35:29;97680.59;;;-3.37;76.20
62057;BME280;48016;50.284;18.860;2023-01-30T05:37:56;97691.73;;;-3.38;76.23
62057;BME280;48016;50.284;18.860;2023-01-30T05:40:22;97688.85;;;-3.37;76.08
62057;BME280;48016;50.284;18.860;2023-01-30T05:42:49;97662.33;;;-3.38;75.92
62057;BME280;48016;50.284;18.860;2023-01-30T05:45:16;97659.09;;;-3.39;75.82
62057;BME280;48016;50.284;18.860;2023-01-30T05:47:42;97661.08;;;-3.39;75.94
62057;BME280;48016;50.284;18.860;2023-01-30T05:50:10;97651.39;;;-3.38;76.06
62057;BME280;48016;50.284;18.860;2023-01-30T05:52:36;97627.41;;;-3.36;76.04
62057;BME280;48016;50.284;18.860;2023-01-30T05:55:03;97616.63;;;-3.34;76.18
62057;BME280;48016;50.284;18.860;2023-01-30T05:57:30;97612.50;;;-3.32;76.11
62057;BME280;48016;50.284;18.860;2023-01-30T05:59:57;97596.17;;;-3.30;76.26
62057;BME280;48016;50.284;18.860;2023-01-30T06:02:24;97609.44;;;-3.28;76.06
62057;BME280;48016;50.284;18.860;2023-01-30T06:04:50;97615.54;;;-3.24;76.12
62057;BME280;48016;50.284;18.860;2023-01-30T06:07:17;97612.80;;;-3.22;76.06
62057;BME280;48016;50.284;18.860;2023-01-30T06:09:44;97613.02;;;-3.20;75.93
62057;BME280;48016;50.284;18.860;2023-01-30T06:12:10;97624.54;;;-3.16;75.84
62057;BME280;48016;50.284;18.860;2023-01-30T06:14:37;97608.75;;;-3.16;75.62
62057;BME280;48016;50.284;18.860;2023-01-30T06:17:03;97611.92;;;-3.17;75.35
62057;BME280;48016;50.284;18.860;2023-01-30T06:19:30;97606.88;;;-3.18;75.37
62057;BME280;48016;50.284;18.860;2023-01-30T06:21:57;97611.02;;;-3.19;75.17
62057;BME280;48016;50.284;18.860;2023-01-30T06:24:23;97607.55;;;-3.19;75.11
62057;BME280;48016;50.284;18.860;2023-01-30T06:26:50;97607.42;;;-3.20;75.16
62057;BME280;48016;50.284;18.860;2023-01-30T06:29:17;97601.85;;;-3.19;75.00
62057;BME280;48016;50.284;18.860;2023-01-30T06:31:43;97598.90;;;-3.17;75.19
62057;BME280;48016;50.284;18.860;2023-01-30T06:34:10;97593.70;;;-3.17;75.14
62057;BME280;48016;50.284;18.860;2023-01-30T06:36:37;97597.53;;;-3.13;75.45
62057;BME280;48016;50.284;18.860;2023-01-30T06:39:04;97590.31;;;-3.10;75.61
62057;BME280;48016;50.284;18.860;2023-01-30T06:41:30;97592.10;;;-3.08;75.73
62057;BME280;48016;50.284;18.860;2023-01-30T06:43:57;97594.17;;;-3.07;75.57
62057;BME280;48016;50.284;18.860;2023-01-30T06:46:24;97584.98;;;-3.07;75.46
62057;BME280;48016;50.284;18.860;2023-01-30T06:48:50;97584.92;;;-3.05;75.46
62057;BME280;48016;50.284;18.860;2023-01-30T06:51:17;97579.55;;;-3.03;75.31
62057;BME280;48016;50.284;18.860;2023-01-30T06:53:43;97575.28;;;-3.03;74.95
62057;BME280;48016;50.284;18.860;2023-01-30T06:56:10;97574.73;;;-3.04;74.93
62057;BME280;48016;50.284;18.860;2023-01-30T06:58:37;97570.96;;;-3.03;74.85
62057;BME280;48016;50.284;18.860;2023-01-30T07:01:04;97563.33;;;-3.03;74.88
62057;BME280;48016;50.284;18.860;2023-01-30T07:03:30;97566.14;;;-3.04;74.66
62057;BME280;48016;50.284;18.860;2023-01-30T07:05:57;97568.36;;;-3.07;74.68
62057;BME280;48016;50.284;18.860;2023-01-30T07:08:24;97562.16;;;-3.07;74.68
62057;BME280;48016;50.284;18.860;2023-01-30T07:10:50;97564.98;;;-3.06;74.54
62057;BME280;48016;50.284;18.860;2023-01-30T07:13:17;97546.17;;;-3.04;74.62
62057;BME280;48016;50.284;18.860;2023-01-30T07:15:44;97535.66;;;-3.03;74.82
62057;BME280;48016;50.284;18.860;2023-01-30T07:18:12;97526.46;;;-3.02;74.95
62057;BME280;48016;50.284;18.860;2023-01-30T07:20:39;97525.51;;;-3.00;74.79
62057;BME280;48016;50.284;18.860;2023-01-30T07:23:07;97526.92;;;-2.97;74.98
62057;BME280;48016;50.284;18.860;2023-01-30T07:25:34;97517.06;;;-2.94;75.07
62057;BME280;48016;50.284;18.860;2023-01-30T07:28:01;97519.91;;;-2.91;74.98
62057;BME280;48016;50.284;18.860;2023-01-30T07:30:30;97512.83;;;-2.89;74.79
62057;BME280;48016;50.284;18.860;2023-01-30T07:32:58;97515.98;;;-2.88;74.59
62057;BME280;48016;50.284;18.860;2023-01-30T07:35:27;97518.43;;;-2.88;74.59
62057;BME280;48016;50.284;18.860;2023-01-30T07:37:54;97521.59;;;-2.86;74.33
62057;BME280;48016;50.284;18.860;2023-01-30T07:40:21;97518.73;;;-2.85;74.22
62057;BME280;48016;50.284;18.860;2023-01-30T07:43:15;97519.84;;;-2.84;74.06
62057;BME280;48016;50.284;18.860;2023-01-30T07:45:45;97516.02;;;-2.81;74.07
62057;BME280;48016;50.284;18.860;2023-01-30T07:48:15;97506.62;;;-2.79;74.04
62057;BME280;48016;50.284;18.860;2023-01-30T07:50:42;97502.94;;;-2.78;73.89
62057;BME280;48016;50.284;18.860;2023-01-30T07:53:10;97506.14;;;-2.75;74.00
62057;BME280;48016;50.284;18.860;2023-01-30T07:55:38;97499.62;;;-2.71;74.06
62057;BME280;48016;50.284;18.860;2023-01-30T07:58:05;97501.88;;;-2.68;74.05
62057;BME280;48016;50.284;18.860;2023-01-30T08:00:32;97514.61;;;-2.64;74.11
62057;BME280;48016;50.284;18.860;2023-01-30T08:02:59;97507.29;;;-2.59;74.07
62057;BME280;48016;50.284;18.860;2023-01-30T08:05:26;97511.28;;;-2.54;73.98
62057;BME280;48016;50.284;18.860;2023-01-30T08:07:54;97503.73;;;-2.52;73.90
62057;BME280;48016;50.284;18.860;2023-01-30T08:10:22;97501.30;;;-2.51;73.74
62057;BME280;48016;50.284;18.860;2023-01-30T08:12:49;97491.40;;;-2.49;73.46
62057;BME280;48016;50.284;18.860;2023-01-30T08:15:17;97487.40;;;-2.47;73.51
62057;BME280;48016;50.284;18.860;2023-01-30T08:17:43;97485.81;;;-2.37;73.41
62057;BME280;48016;50.284;18.860;2023-01-30T08:20:10;97479.35;;;-2.23;73.13
62057;BME280;48016;50.284;18.860;2023-01-30T08:22:37;97478.08;;;-2.12;73.06
62057;BME280;48016;50.284;18.860;2023-01-30T08:25:04;97471.84;;;-2.04;72.85
62057;BME280;48016;50.284;18.860;2023-01-30T08:27:31;97471.59;;;-2.00;72.85
62057;BME280;48016;50.284;18.860;2023-01-30T08:29:57;97474.95;;;-1.97;72.67
62057;BME280;48016;50.284;18.860;2023-01-30T08:32:24;97472.71;;;-1.95;72.87
62057;BME280;48016;50.284;18.860;2023-01-30T08:34:51;97460.83;;;-1.92;73.16
62057;BME280;48016;50.284;18.860;2023-01-30T08:37:17;97468.13;;;-1.89;73.26
62057;BME280;48016;50.284;18.860;2023-01-30T08:39:44;97464.67;;;-1.90;73.34
62057;BME280;48016;50.284;18.860;2023-01-30T08:42:11;97465.94;;;-1.90;73.29
62057;BME280;48016;50.284;18.860;2023-01-30T08:44:37;97466.10;;;-1.90;73.12
62057;BME280;48016;50.284;18.860;2023-01-30T08:47:04;97463.70;;;-1.90;72.73
62057;BME280;48016;50.284;18.860;2023-01-30T08:49:31;97469.11;;;-1.90;72.56
62057;BME280;48016;50.284;18.860;2023-01-30T08:51:57;97460.27;;;-1.91;72.46
62057;BME280;48016;50.284;18.860;2023-01-30T08:54:24;97460.70;;;-1.92;72.37
62057;BME280;48016;50.284;18.860;2023-01-30T08:56:51;97453.21;;;-1.94;72.20
62057;BME280;48016;50.284;18.860;2023-01-30T08:59:18;97457.83;;;-1.97;72.00
62057;BME280;48016;50.284;18.860;2023-01-30T09:01:44;97455.92;;;-2.00;72.26
62057;BME280;48016;50.284;18.860;2023-01-30T09:04:11;97461.17;;;-2.00;72.24
62057;BME280;48016;50.284;18.860;2023-01-30T09:06:38;97453.77;;;-2.00;72.12
62057;BME280;48016;50.284;18.860;2023-01-30T09:09:05;97445.06;;;-1.99;72.22
62057;BME280;48016;50.284;18.860;2023-01-30T09:11:31;97443.48;;;-1.95;72.50
62057;BME280;48016;50.284;18.860;2023-01-30T09:13:58;97435.80;;;-1.89;72.79
62057;BME280;48016;50.284;18.860;2023-01-30T09:16:25;97433.20;;;-1.84;72.85
62057;BME280;48016;50.284;18.860;2023-01-30T09:18:51;97428.48;;;-1.77;72.82
62057;BME280;48016;50.284;18.860;2023-01-30T09:21:18;97427.73;;;-1.71;72.71
62057;BME280;48016;50.284;18.860;2023-01-30T09:23:45;97430.41;;;-1.65;72.66
62057;BME280;48016;50.284;18.860;2023-01-30T09:26:11;97420.98;;;-1.59;72.56
62057;BME280;48016;50.284;18.860;2023-01-30T09:28:38;97419.69;;;-1.54;72.31
62057;BME280;48016;50.284;18.860;2023-01-30T09:31:05;97412.73;;;-1.49;72.30
62057;BME280;48016;50.284;18.860;2023-01-30T09:33:32;97410.09;;;-1.45;72.32
62057;BME280;48016;50.284;18.860;2023-01-30T09:35:58;97416.58;;;-1.40;72.26
62057;BME280;48016;50.284;18.860;2023-01-30T09:38:25;97411.22;;;-1.35;72.20
62057;BME280;48016;50.284;18.860;2023-01-30T09:46:30;97392.65;;;-1.30;72.08
62057;BME280;48016;50.284;18.860;2023-01-30T09:49:13;97385.64;;;-1.32;72.20
62057;BME280;48016;50.284;18.860;2023-01-30T09:54:29;97380.33;;;-1.30;72.69
62057;BME280;48016;50.284;18.860;2023-01-30T09:57:16;97369.98;;;-1.30;72.93
62057;BME280;48016;50.284;18.860;2023-01-30T10:03:00;97351.08;;;-1.41;73.47
62057;BME280;48016;50.284;18.860;2023-01-30T10:10:47;97351.23;;;-1.44;74.06
62057;BME280;48016;50.284;18.860;2023-01-30T10:13:21;97353.96;;;-1.46;74.22
62057;BME280;48016;50.284;18.860;2023-01-30T10:26:18;97328.23;;;-1.62;74.84
62057;BME280;48016;50.284;18.860;2023-01-30T10:29:02;97320.45;;;-1.63;75.06
62057;BME280;48016;50.284;18.860;2023-01-30T10:31:45;97317.10;;;-1.65;75.38
62057;BME280;48016;50.284;18.860;2023-01-30T10:34:31;97316.40;;;-1.65;75.65
62057;BME280;48016;50.284;18.860;2023-01-30T10:37:05;97310.58;;;-1.63;75.94
62057;BME280;48016;50.284;18.860;2023-01-30T10:39:36;97303.30;;;-1.59;76.01
62057;BME280;48016;50.284;18.860;2023-01-30T10:44:37;97302.27;;;-1.51;76.19
62057;BME280;48016;50.284;18.860;2023-01-30T10:47:13;97299.34;;;-1.45;76.23
62057;BME280;48016;50.284;18.860;2023-01-30T10:49:46;97300.25;;;-1.41;76.34
62057;BME280;48016;50.284;18.860;2023-01-30T11:01:01;97287.56;;;-1.28;76.23
62057;BME280;48016;50.284;18.860;2023-01-30T11:06:32;97284.66;;;-1.29;76.17
62057;BME280;48016;50.284;18.860;2023-01-30T11:09:01;97276.70;;;-1.28;76.19
62057;BME280;48016;50.284;18.860;2023-01-30T11:11:41;97268.27;;;-1.27;76.48
62057;BME280;48016;50.284;18.860;2023-01-30T11:14:13;97273.45;;;-1.27;76.56
62057;BME280;48016;50.284;18.860;2023-01-30T11:16:47;97272.22;;;-1.27;76.59
62057;BME280;48016;50.284;18.860;2023-01-30T11:19:18;97271.58;;;-1.26;76.76
62057;BME280;48016;50.284;18.860;2023-01-30T11:21:52;97265.41;;;-1.21;76.86
62057;BME280;48016;50.284;18.860;2023-01-30T11:24:23;97252.64;;;-1.18;76.88
62057;BME280;48016;50.284;18.860;2023-01-30T11:26:55;97239.73;;;-1.16;76.93
62057;BME280;48016;50.284;18.860;2023-01-30T11:29:28;97236.42;;;-1.14;76.95
62057;BME280;48016;50.284;18.860;2023-01-30T11:31:59;97230.27;;;-1.14;76.88
62057;BME280;48016;50.284;18.860;2023-01-30T11:34:28;97224.30;;;-1.14;76.93
62057;BME280;48016;50.284;18.860;2023-01-30T11:37:12;97222.80;;;-1.17;76.92
62057;BME280;48016;50.284;18.860;2023-01-30T11:39:49;97217.83;;;-1.20;77.05
62057;BME280;48016;50.284;18.860;2023-01-30T11:42:18;97212.56;;;-1.15;76.92
62057;BME280;48016;50.284;18.860;2023-01-30T11:44:45;97201.49;;;-1.11;77.02
62057;BME280;48016;50.284;18.860;2023-01-30T11:47:26;97199.41;;;-1.12;77.19
62057;BME280;48016;50.284;18.860;2023-01-30T11:49:55;97194.71;;;-1.11;77.38
62057;BME280;48016;50.284;18.860;2023-01-30T11:52:33;97178.02;;;-1.06;77.73
62057;BME280;48016;50.284;18.860;2023-01-30T11:55:05;97187.21;;;-1.07;77.80
62057;BME280;48016;50.284;18.860;2023-01-30T11:57:47;97183.24;;;-1.06;77.98
62057;BME280;48016;50.284;18.860;2023-01-30T12:00:21;97176.99;;;-1.04;78.01
62057;BME280;48016;50.284;18.860;2023-01-30T12:02:51;97185.35;;;-1.01;78.21
62057;BME280;48016;50.284;18.860;2023-01-30T12:05:33;97174.73;;;-0.96;78.22
62057;BME280;48016;50.284;18.860;2023-01-30T12:10:50;97172.86;;;-0.88;78.43
62057;BME280;48016;50.284;18.860;2023-01-30T12:16:50;97161.48;;;-0.80;78.63
62057;BME280;48016;50.284;18.860;2023-01-30T12:19:30;97159.18;;;-0.77;78.71
62057;BME280;48016;50.284;18.860;2023-01-30T12:25:09;97163.67;;;-0.70;78.82
62057;BME280;48016;50.284;18.860;2023-01-30T12:30:31;97164.17;;;-0.70;79.08
62057;BME280;48016;50.284;18.860;2023-01-30T12:33:03;97165.80;;;-0.70;79.04
62057;BME280;48016;50.284;18.860;2023-01-30T12:38:29;97158.52;;;-0.73;79.42
62057;BME280;48016;50.284;18.860;2023-01-30T12:47:32;97149.25;;;-0.72;80.00
62057;BME280;48016;50.284;18.860;2023-01-30T12:52:50;97135.57;;;-0.65;80.29
62057;BME280;48016;50.284;18.860;2023-01-30T13:03:34;97136.50;;;-0.73;81.03
62057;BME280;48016;50.284;18.860;2023-01-30T13:12:15;97128.34;;;-0.73;81.45
62057;BME280;48016;50.284;18.860;2023-01-30T13:15:01;97123.01;;;-0.71;81.39
62057;BME280;48016;50.284;18.860;2023-01-30T13:20:54;97128.66;;;-0.64;81.67
62057;BME280;48016;50.284;18.860;2023-01-30T13:23:47;97126.32;;;-0.60;81.65
62057;BME280;48016;50.284;18.860;2023-01-30T13:26:22;97110.75;;;-0.59;81.67
62057;BME280;48016;50.284;18.860;2023-01-30T13:28:59;97114.90;;;-0.57;81.68
62057;BME280;48016;50.284;18.860;2023-01-30T13:31:31;97122.23;;;-0.51;81.87
62057;BME280;48016;50.284;18.860;2023-01-30T13:34:05;97128.52;;;-0.45;81.80
62057;BME280;48016;50.284;18.860;2023-01-30T13:39:14;97098.48;;;-0.36;81.53
62057;BME280;48016;50.284;18.860;2023-01-30T13:41:48;97102.11;;;-0.34;81.64
62057;BME280;48016;50.284;18.860;2023-01-30T13:44:26;97104.86;;;-0.31;81.55
62057;BME280;48016;50.284;18.860;2023-01-30T13:46:58;97105.14;;;-0.25;81.40
62057;BME280;48016;50.284;18.860;2023-01-30T13:49:47;97102.70;;;-0.15;81.41
62057;BME280;48016;50.284;18.860;2023-01-30T13:52:43;97096.27;;;-0.02;81.47
62057;BME280;48016;50.284;18.860;2023-01-30T14:00:57;97093.41;;;0.18;80.94
62057;BME280;48016;50.284;18.860;2023-01-30T14:03:29;97089.87;;;0.25;80.65
62057;BME280;48016;50.284;18.860;2023-01-30T14:08:25;97089.79;;;0.33;80.41
62057;BME280;48016;50.284;18.860;2023-01-30T14:10:54;97096.16;;;0.34;80.35
62057;BME280;48016;50.284;18.860;2023-01-30T14:13:23;97090.34;;;0.35;80.09
62057;BME280;48016;50.284;18.860;2023-01-30T14:15:57;97090.72;;;0.33;79.99
62057;BME280;48016;50.284;18.860;2023-01-30T14:18:35;97095.15;;;0.32;79.79
62057;BME280;48016;50.284;18.860;2023-01-30T14:21:28;97088.09;;;0.31;79.70
62057;BME280;48016;50.284;18.860;2023-01-30T14:23:57;97091.38;;;0.29;79.87
62057;BME280;48016;50.284;18.860;2023-01-30T14:34:42;97087.06;;;0.30;79.78
62057;BME280;48016;50.284;18.860;2023-01-30T14:40:01;97104.33;;;0.30;79.78
62057;BME280;48016;50.284;18.860;2023-01-30T14:42:29;97103.41;;;0.31;79.78
62057;BME280;48016;50.284;18.860;2023-01-30T14:45:03;97102.48;;;0.32;79.50
62057;BME280;48016;50.284;18.860;2023-01-30T14:47:31;97104.47;;;0.31;79.56
62057;BME280;48016;50.284;18.860;2023-01-30T14:49:59;97104.32;;;0.31;79.34
62057;BME280;48016;50.284;18.860;2023-01-30T14:52:35;97107.57;;;0.28;79.29
62057;BME280;48016;50.284;18.860;2023-01-30T14:55:04;97108.93;;;0.28;79.40
62057;BME280;48016;50.284;18.860;2023-01-30T14:57:31;97100.72;;;0.28;79.35
62057;BME280;48016;50.284;18.860;2023-01-30T15:00:14;97106.96;;;0.29;79.47
62057;BME280;48016;50.284;18.860;2023-01-30T15:02:49;97112.29;;;0.31;79.51
62057;BME280;48016;50.284;18.860;2023-01-30T15:05:29;97112.45;;;0.34;79.70
62057;BME280;48016;50.284;18.860;2023-01-30T15:08:09;97117.86;;;0.36;79.82
62057;BME280;48016;50.284;18.860;2023-01-30T15:19:18;97120.20;;;0.44;79.79
62057;BME280;48016;50.284;18.860;2023-01-30T15:22:18;97118.91;;;0.46;79.73
62057;BME280;48016;50.284;18.860;2023-01-30T15:30:12;97143.15;;;0.45;79.55
62057;BME280;48016;50.284;18.860;2023-01-30T15:32:43;97138.35;;;0.45;79.75
62057;BME280;48016;50.284;18.860;2023-01-30T15:37:50;97152.89;;;0.43;79.47
62057;BME280;48016;50.284;18.860;2023-01-30T15:40:24;97164.39;;;0.44;79.56
62057;BME280;48016;50.284;18.860;2023-01-30T15:46:07;97154.87;;;0.46;79.52